Decoded Metar for KVTA (NEWARK in OH, USA) (IATA:VTA) | Meteo·Mobile Aviation Weather
aviador You're here:

KVTA Decoded Metar

NEWARK in OH, USA
Report Time2018-11-12 21:54:00
UTC Time2018-11-12 22:45:09
Flight Rules vfr VFR
WindCalm
Visibility9999 m
Phenomena:N/A
Clouds:Scattered 080 Hf
Overcast 110 Hf
Expected CloudBase > 2,800 ft AGL from Temp-Dew spread
Ceiling11,000 ft
Temp04°C (ISA -9)
Dew Point-3°C (61% RH)
AAT1.6°C
QNH1022 hPa
Density Alt-472 ft
Elevation879 ft
Report Wrong Elevation
Raw Report
KVTA 122154Z AUTO 00000KT 10SM SCT080 OVC110 04/M03 A3019 RMK AO2
SLP233 T00441028=

Extra information for KVTA:More info

Metar Taf Metar & Taf Last 4 Metars F.Rules Stats Wind Profile Meteogram Temp Stats Airport Information Weather charts Add Link Nearby VenuesMetar ALERT Operation Metar Decoded Social comments

AIRNAV info for KVTA